KLRY

Lawrence Smith Memorial Airport

Harrisonville, Missouri, USA
METAR KLRY 151915Z AUTO 04009KT 1 1/2SM -SN BKN011 OVC018 M07/M10 A3005 RMK AO2
Observed Flight Rules
Feb-15 @ 19:15 UTC (10 minutes ago) Instrument Flight Rules
Wind Visibility Clouds Conditions
40° at 9 knots 1 1/2 miles
  • Broken at 1,100' AGL
  • Overcast at 1,800' AGL
  • Light Snow
Temperatures Readings
Current -7°C / 19°F
Dewpoint -10°C / 14°F
Humidity 79%
Altimeter 30.05" Hg
Pressure 1017.62 hPa
Elevation 279
METAR KLRY 151915Z AUTO 04009KT 1 1/2SM -SN BKN011 OVC018 M07/M10 A3005 RMK AO2
Observed Flight Rules
Feb-15 @ 19:15 UTC
(10 minutes ago)
IFR
Wind Visibility
40° at 9 knots 1 1/2 miles
Clouds
  • Broken at 1,100' AGL
  • Overcast at 1,800' AGL
Conditions
  • Light Snow
Temperature Dewpoint
-7°C / 19°F -10°C / 14°F
Humidity Altimeter Pressure
79% 30.05" Hg 1017.62 hPa